Time;durP1;ratioP1;P1;durP2;ratioP2;P2;SDS_P1;SDS_P2;PMS_P1;PMS_P2;Temp;Humidity;BMP_temperature;BMP_pressure;BME280_temperature;BME280_humidity;BME280_pressure;Samples;Min_cycle;Max_cycle;Signal;HPM_P1;HPM_P2
2022/10/31 00:02:07;;;;;;;4.60;2.20;;;;;;;20.19;52.20;101986.63;16133367;19;131078;-42
2022/10/31 00:07:29;;;;;;;3.80;2.30;;;;;;;20.18;52.06;101990.53;16130043;19;129415;-40
2022/10/31 00:12:51;;;;;;;5.90;2.70;;;;;;;20.18;51.86;101989.66;16130336;19;130423;-41
2022/10/31 00:18:13;;;;;;;5.45;2.30;;;;;;;20.16;52.04;101978.78;16129335;19;129508;-41
2022/10/31 00:23:35;;;;;;;2.38;1.85;;;;;;;20.16;51.78;101986.25;16128337;19;129685;-41
2022/10/31 00:28:58;;;;;;;3.40;2.00;;;;;;;20.16;52.26;101981.56;16129486;19;129146;-41
2022/10/31 00:34:20;;;;;;;3.95;1.73;;;;;;;20.15;51.84;101965.97;16128325;19;129689;-41
2022/10/31 00:39:41;;;;;;;3.80;1.70;;;;;;;20.14;52.15;101964.28;16130968;19;129790;-41
2022/10/31 00:45:03;;;;;;;2.45;1.63;;;;;;;20.12;52.15;101956.16;16131122;19;131291;-43
2022/10/31 00:50:25;;;;;;;4.60;1.85;;;;;;;20.12;52.14;101963.66;16129579;19;129617;-41
2022/10/31 00:55:47;;;;;;;3.08;1.52;;;;;;;20.10;52.00;101975.00;16129277;19;130474;-41
2022/10/31 01:01:08;;;;;;;2.50;1.42;;;;;;;20.10;51.65;101974.13;16129091;19;129557;-41
2022/10/31 01:06:30;;;;;;;2.58;1.27;;;;;;;20.10;51.94;101971.34;16125773;19;128998;-41
2022/10/31 01:11:52;;;;;;;1.40;1.10;;;;;;;20.10;52.12;101974.13;16130753;19;129504;-41
2022/10/31 01:17:14;;;;;;;2.60;1.20;;;;;;;20.08;52.12;101973.50;16124644;19;129648;-41
2022/10/31 01:22:35;;;;;;;2.92;1.27;;;;;;;20.07;51.61;101971.81;16125622;19;129618;-41
2022/10/31 01:27:57;;;;;;;1.77;1.00;;;;;;;20.07;52.10;101977.38;16124734;19;129066;-40
2022/10/31 01:33:19;;;;;;;1.90;0.95;;;;;;;20.06;51.73;101981.25;16128662;19;129920;-40
2022/10/31 01:38:42;;;;;;;2.35;0.88;;;;;;;20.06;51.65;101964.59;16126302;19;129267;-41
2022/10/31 01:44:24;;;;;;;2.47;1.20;;;;;;;20.06;51.53;101962.66;16123809;19;130325;-44
2022/10/31 01:49:50;;;;;;;2.03;0.90;;;;;;;20.04;51.59;101962.03;16126005;19;131244;-44
2022/10/31 01:55:28;;;;;;;1.23;0.85;;;;;;;20.05;51.99;101963.72;16128425;19;129453;-41
2022/10/31 02:00:55;;;;;;;1.23;0.73;;;;;;;20.03;51.58;101965.03;16125354;19;128960;-40
2022/10/31 02:06:35;;;;;;;1.95;1.00;;;;;;;20.04;51.46;101955.63;16124908;19;129610;-41
2022/10/31 02:11:59;;;;;;;1.55;0.90;;;;;;;20.01;51.47;101962.47;16123844;19;129919;-40
2022/10/31 02:17:21;;;;;;;0.90;0.80;;;;;;;19.99;51.44;101953.53;16120652;19;129149;-40
2022/10/31 02:23:20;;;;;;;1.17;0.90;;;;;;;20.00;51.63;101949.66;16120301;19;130419;-41
2022/10/31 02:28:50;;;;;;;1.75;0.90;;;;;;;19.98;51.88;101949.03;16120694;19;130234;-42
2022/10/31 02:34:33;;;;;;;1.48;1.10;;;;;;;19.98;51.62;101937.94;16122492;19;130252;-40
2022/10/31 02:40:24;;;;;;;2.53;0.82;;;;;;;19.97;51.53;101936.22;16121856;19;129462;-40
2022/10/31 02:45:49;;;;;;;1.00;0.60;;;;;;;19.96;51.64;101931.75;16122035;19;130217;-41
2022/10/31 02:51:12;;;;;;;2.03;0.80;;;;;;;19.95;51.41;101925.34;16122500;19;129436;-42
2022/10/31 02:56:34;;;;;;;0.75;0.60;;;;;;;19.95;51.46;101930.88;16126348;19;130933;-41
2022/10/31 03:02:13;;;;;;;1.10;0.88;;;;;;;19.93;51.41;101921.97;16133644;19;130358;-41
2022/10/31 03:08:13;;;;;;;1.20;0.68;;;;;;;19.93;51.38;101924.75;16137284;19;129713;-41
2022/10/31 03:13:34;;;;;;;0.82;0.65;;;;;;;19.91;51.67;101917.69;16133467;19;129556;-40
2022/10/31 03:19:03;;;;;;;0.98;0.60;;;;;;;19.91;51.73;101917.69;16134075;19;129600;-40
2022/10/31 03:24:31;;;;;;;0.60;0.57;;;;;;;19.90;51.44;101922.41;16131982;19;129611;-41
2022/10/31 03:29:57;;;;;;;0.75;0.73;;;;;;;19.89;51.40;101914.31;16131526;19;131093;-39
2022/10/31 03:35:22;;;;;;;0.65;0.50;;;;;;;19.88;51.49;101912.63;16129820;19;129150;-39
2022/10/31 03:40:47;;;;;;;0.98;0.45;;;;;;;19.87;51.11;101908.97;16133655;19;131130;-40
2022/10/31 03:46:09;;;;;;;2.30;0.70;;;;;;;19.86;51.35;101906.44;16134797;19;129658;-40
2022/10/31 03:51:49;;;;;;;0.60;0.55;;;;;;;19.87;51.24;101911.75;16130783;19;129579;-41
2022/10/31 03:57:35;;;;;;;1.38;0.50;;;;;;;19.85;51.57;101919.47;16130897;19;129225;-41
2022/10/31 04:03:09;;;;;;;0.87;0.67;;;;;;;19.85;51.25;101911.16;16129315;19;129638;-39
2022/10/31 04:08:36;;;;;;;1.48;0.70;;;;;;;19.83;51.43;101908.59;16130342;19;130440;-39
2022/10/31 04:14:00;;;;;;;1.98;0.60;;;;;;;19.83;51.15;101916.94;16130397;19;129608;-41
2022/10/31 04:19:21;;;;;;;0.88;0.50;;;;;;;19.83;51.21;101927.19;16127343;19;128926;-40
2022/10/31 04:24:43;;;;;;;0.70;0.70;;;;;;;19.82;51.19;101909.69;16131180;19;130999;-40
2022/10/31 04:30:05;;;;;;;0.60;0.50;;;;;;;19.82;51.09;101914.38;16130393;19;130092;-44
2022/10/31 04:35:27;;;;;;;0.75;0.57;;;;;;;19.81;51.41;101910.75;16127469;19;131156;-40
2022/10/31 04:40:49;;;;;;;0.57;0.50;;;;;;;19.81;50.86;101912.69;16129158;19;130092;-41
2022/10/31 04:46:10;;;;;;;0.73;0.57;;;;;;;19.81;50.93;101909.94;16127295;19;129836;-40
2022/10/31 04:51:32;;;;;;;0.50;0.50;;;;;;;19.80;51.04;101905.44;16128208;19;129425;-40
2022/10/31 04:56:54;;;;;;;0.75;0.50;;;;;;;19.80;51.07;101902.66;16128017;19;129829;-42
2022/10/31 05:02:15;;;;;;;0.60;0.55;;;;;;;19.79;50.89;101904.59;16125960;19;130167;-40
2022/10/31 05:07:42;;;;;;;0.82;0.47;;;;;;;19.79;51.29;101906.53;16125515;19;129419;-41
2022/10/31 05:13:04;;;;;;;0.68;0.40;;;;;;;19.78;51.31;101904.81;16127099;19;130270;-41
2022/10/31 05:18:26;;;;;;;0.47;0.43;;;;;;;19.78;50.93;101902.88;16123319;19;129545;-40
2022/10/31 05:23:48;;;;;;;0.63;0.40;;;;;;;19.77;51.30;101889.25;16124831;19;129791;-41
2022/10/31 05:29:09;;;;;;;0.40;0.40;;;;;;;19.77;51.10;101894.78;16123437;19;129958;-42
2022/10/31 05:34:31;;;;;;;0.52;0.40;;;;;;;19.76;51.17;101880.03;16122967;19;129387;-41
2022/10/31 05:39:53;;;;;;;0.50;0.50;;;;;;;19.75;50.79;101880.28;16125347;19;130022;-42
2022/10/31 05:45:16;;;;;;;1.20;0.70;;;;;;;19.75;50.77;101885.84;16125265;19;129811;-40
2022/10/31 05:50:38;;;;;;;2.25;0.60;;;;;;;19.73;51.04;101880.53;16125071;19;129258;-42
2022/10/31 05:56:00;;;;;;;0.40;0.40;;;;;;;19.73;50.74;101882.44;16125056;19;128907;-41
2022/10/31 06:01:21;;;;;;;0.52;0.50;;;;;;;19.73;50.70;101882.44;16122023;19;130003;-40
2022/10/31 06:06:43;;;;;;;0.77;0.60;;;;;;;19.72;50.91;101876.06;16125077;19;129174;-41
2022/10/31 06:12:05;;;;;;;1.58;0.50;;;;;;;19.72;51.16;101867.72;16125568;19;128947;-40
2022/10/31 06:17:27;;;;;;;1.45;0.50;;;;;;;19.73;50.85;101871.34;16124364;19;133728;-40
2022/10/31 06:22:48;;;;;;;0.45;0.45;;;;;;;19.72;50.77;101880.75;16124305;19;130929;-40
2022/10/31 06:28:10;;;;;;;1.17;0.50;;;;;;;19.73;50.77;101882.44;16121840;19;129694;-40
2022/10/31 06:33:33;;;;;;;3.80;0.70;;;;;;;19.71;50.70;101885.47;16134248;19;130882;-40
2022/10/31 06:38:55;;;;;;;1.55;0.50;;;;;;;19.70;51.14;101875.44;16137064;19;130242;-43
2022/10/31 06:44:17;;;;;;;1.23;0.70;;;;;;;19.69;50.79;101882.91;16134970;19;129879;-40
2022/10/31 06:49:38;;;;;;;1.88;0.45;;;;;;;19.69;50.75;101880.13;16138149;19;129556;-44
2022/10/31 06:55:00;;;;;;;1.20;0.82;;;;;;;19.67;50.67;101873.97;16134638;19;130120;-43
2022/10/31 07:00:23;;;;;;;1.55;0.60;;;;;;;19.67;51.08;101879.53;16134411;19;135192;-42
2022/10/31 07:05:45;;;;;;;2.72;0.70;;;;;;;19.68;50.80;101886.78;16135966;19;129329;-40
2022/10/31 07:11:07;;;;;;;1.90;0.88;;;;;;;19.70;50.66;101875.44;16136375;19;129375;-40
2022/10/31 07:16:28;;;;;;;3.88;0.75;;;;;;;19.71;50.61;101881.81;16136161;19;129590;-40
2022/10/31 07:21:50;;;;;;;1.42;0.77;;;;;;;19.74;51.04;101873.03;16135400;19;130126;-41
2022/10/31 07:27:12;;;;;;;2.28;1.02;;;;;;;19.74;50.77;101878.59;16137354;19;130426;-42
2022/10/31 07:32:40;;;;;;;4.63;1.67;;;;;;;19.72;50.72;101875.19;16130124;19;129429;-42
2022/10/31 07:38:13;;;;;;;4.25;1.35;;;;;;;19.72;50.85;101870.50;16132850;19;130650;-41
2022/10/31 07:43:34;;;;;;;4.05;1.48;;;;;;;19.68;51.05;101869.25;16129672;19;129409;-41
2022/10/31 07:48:56;;;;;;;4.60;1.15;;;;;;;19.67;50.84;101867.56;16133308;19;130007;-41
2022/10/31 07:54:18;;;;;;;5.45;1.00;;;;;;;19.65;51.03;101859.47;16132697;19;129677;-41
2022/10/31 07:59:39;;;;;;;1.30;1.00;;;;;;;19.63;51.14;101850.53;16130375;19;129786;-40
2022/10/31 08:05:01;;;;;;;7.22;1.38;;;;;;;19.64;50.98;101856.91;16128210;19;129486;-41
2022/10/31 08:10:24;;;;;;;4.07;1.42;;;;;;;19.65;51.28;101873.34;16126091;19;129586;-41
2022/10/31 08:15:50;;;;;;;11.48;1.55;;;;;;;19.69;51.25;101882.91;16131887;19;129509;-41
2022/10/31 08:21:11;;;;;;;5.80;1.20;;;;;;;19.74;51.01;101875.81;16131172;19;129452;-40
2022/10/31 08:26:33;;;;;;;6.15;1.20;;;;;;;19.76;51.19;101880.03;16126389;19;129929;-39
2022/10/31 08:31:57;;;;;;;4.55;1.00;;;;;;;19.79;50.97;101854.59;16127273;19;129617;-41
2022/10/31 08:37:19;;;;;;;6.85;1.35;;;;;;;19.82;50.99;101836.63;16125012;19;129555;-43
2022/10/31 08:42:41;;;;;;;3.40;0.98;;;;;;;19.84;51.16;101823.34;16128062;19;129736;-40
2022/10/31 08:48:05;;;;;;;2.03;1.33;;;;;;;19.87;50.61;101813.75;16126135;19;129522;-42
2022/10/31 08:53:28;;;;;;;4.47;1.67;;;;;;;19.88;50.45;101824.59;16127896;19;129524;-42
2022/10/31 08:58:51;;;;;;;3.83;1.50;;;;;;;19.88;50.96;101821.81;16127746;19;129115;-41
2022/10/31 09:04:12;;;;;;;4.95;1.50;;;;;;;19.87;50.74;101797.91;16127786;19;130773;-41
2022/10/31 09:09:34;;;;;;;4.47;1.65;;;;;;;19.86;50.52;101807.31;16128080;19;129480;-42
2022/10/31 09:14:56;;;;;;;5.47;1.67;;;;;;;19.84;50.63;101801.16;16129614;19;129638;-45
2022/10/31 09:20:18;;;;;;;4.68;1.70;;;;;;;19.83;50.92;101777.22;16129410;19;130653;-44
2022/10/31 09:25:40;;;;;;;5.25;1.50;;;;;;;19.82;50.64;101767.22;16130305;19;129401;-49
2022/10/31 09:31:09;;;;;;;6.95;1.92;;;;;;;19.79;50.84;101771.31;16118182;19;129082;-46
2022/10/31 09:36:31;;;;;;;3.47;1.67;;;;;;;19.79;50.42;101765.75;16122765;19;129563;-48
2022/10/31 09:42:20;;;;;;;4.03;1.98;;;;;;;19.81;50.87;101773.88;16123550;19;129216;-47
2022/10/31 09:47:50;;;;;;;6.60;2.15;;;;;;;19.83;50.62;101775.31;16125833;19;129474;-47
2022/10/31 09:53:39;;;;;;;8.85;2.20;;;;;;;19.86;50.79;101760.13;16124854;19;130019;-51
2022/10/31 09:59:03;;;;;;;4.85;1.90;;;;;;;19.88;51.13;101776.56;16124944;19;129943;-48
2022/10/31 10:04:49;;;;;;;6.55;2.00;;;;;;;19.91;50.50;101754.72;16123316;19;129501;-44
2022/10/31 10:10:20;;;;;;;4.90;1.70;;;;;;;19.92;50.70;101748.09;16124902;19;129685;-44
2022/10/31 10:16:03;;;;;;;5.05;1.73;;;;;;;19.94;50.71;101734.78;16122820;19;133716;-46
2022/10/31 10:21:44;;;;;;;5.53;2.53;;;;;;;19.97;50.58;101728.75;16121540;19;130395;-44
2022/10/31 10:27:21;;;;;;;4.60;1.85;;;;;;;19.98;50.94;101741.56;16122115;19;130450;-38
2022/10/31 10:32:52;;;;;;;4.32;2.20;;;;;;;20.01;50.61;101728.34;16124263;19;129593;-45
2022/10/31 10:38:45;;;;;;;6.80;1.75;;;;;;;20.03;50.91;101720.63;16121499;19;129947;-43
2022/10/31 10:44:10;;;;;;;6.25;2.20;;;;;;;20.03;50.62;101720.63;16121521;19;131654;-50
2022/10/31 10:49:40;;;;;;;7.45;2.13;;;;;;;20.05;50.80;101724.00;16118156;19;130435;-41
2022/10/31 10:55:16;;;;;;;6.10;2.10;;;;;;;20.05;50.57;101694.28;16121001;19;130203;-40
2022/10/31 11:00:40;;;;;;;2.67;1.60;;;;;;;20.04;50.78;101683.44;16119832;19;129589;-40
2022/10/31 11:06:02;;;;;;;5.97;2.53;;;;;;;20.07;50.50;101656.00;16121326;19;130023;-41
2022/10/31 11:11:27;;;;;;;6.40;2.50;;;;;;;20.09;50.26;101644.66;16118271;19;129126;-41
2022/10/31 11:16:54;;;;;;;9.52;2.05;;;;;;;20.10;50.79;101633.31;16120057;19;130659;-41
2022/10/31 11:22:17;;;;;;;5.03;2.17;;;;;;;20.11;50.72;101625.81;16132079;19;129831;-40
2022/10/31 11:27:39;;;;;;;4.28;2.88;;;;;;;20.13;50.27;101623.66;16134530;19;129778;-39
2022/10/31 11:33:01;;;;;;;8.02;2.67;;;;;;;20.14;50.27;101598.41;16134715;19;129893;-38
2022/10/31 11:38:34;;;;;;;7.00;3.08;;;;;;;20.17;50.53;101585.13;16134000;19;129615;-40
2022/10/31 11:44:00;;;;;;;5.03;2.55;;;;;;;20.17;50.33;101572.09;16131714;19;129474;-41
2022/10/31 11:49:40;;;;;;;11.70;3.10;;;;;;;20.20;50.22;101551.31;16133899;19;134454;-43
2022/10/31 11:55:29;;;;;;;7.20;3.65;;;;;;;20.18;50.20;101540.44;16132746;19;134615;-42
2022/10/31 12:00:56;;;;;;;333.00;202.07;;;;;;;20.19;51.23;101524.63;16132733;19;130007;-43
2022/10/31 12:06:29;;;;;;;326.50;193.90;;;;;;;20.26;51.34;101526.19;16133514;19;130684;-46
2022/10/31 12:11:53;;;;;;;315.48;183.18;;;;;;;20.32;52.25;101513.25;16132403;19;131012;-43
2022/10/31 12:17:56;;;;;;;340.67;183.68;;;;;;;20.36;52.85;101502.47;16130357;19;129711;-42
2022/10/31 12:23:37;;;;;;;269.98;141.98;;;;;;;20.37;52.79;101493.88;16130751;19;130176;-44
2022/10/31 12:29:19;;;;;;;207.73;106.53;;;;;;;20.34;52.57;101480.50;16129813;19;129502;-42
2022/10/31 12:35:00;;;;;;;169.00;87.18;;;;;;;20.31;52.50;101452.38;16131414;19;130465;-44
2022/10/31 12:40:43;;;;;;;131.13;67.57;;;;;;;20.27;52.42;101438.09;16123722;19;130694;-42
2022/10/31 12:46:15;;;;;;;104.38;55.88;;;;;;;20.26;52.44;101419.75;16128404;19;129555;-43
2022/10/31 12:52:15;;;;;;;84.88;44.40;;;;;;;20.24;51.94;101406.09;16126412;19;130604;-44
2022/10/31 12:57:47;;;;;;;75.60;37.40;;;;;;;20.24;52.29;101402.50;16125886;19;129865;-44
2022/10/31 13:03:23;;;;;;;61.17;32.78;;;;;;;20.21;51.75;101392.69;16125994;19;129745;-41
2022/10/31 13:08:50;;;;;;;68.45;31.77;;;;;;;20.20;52.00;101374.34;16129064;19;131015;-41
2022/10/31 13:14:32;;;;;;;63.72;32.88;;;;;;;20.22;52.14;101349.94;16127167;19;129897;-43
2022/10/31 13:20:13;;;;;;;81.63;37.03;;;;;;;20.27;53.13;101338.09;16128189;19;129860;-42
2022/10/31 13:25:42;;;;;;;92.82;32.63;;;;;;;20.29;54.05;101328.44;16125200;19;129444;-43
2022/10/31 13:31:04;;;;;;;70.55;32.22;;;;;;;20.32;54.02;101329.00;16123106;19;129425;-41
2022/10/31 13:36:42;;;;;;;70.45;29.52;;;;;;;20.36;54.22;101325.50;16119741;19;129962;-43
2022/10/31 13:42:13;;;;;;;68.63;32.10;;;;;;;20.37;55.24;101316.03;16118122;19;130334;-42
2022/10/31 13:47:34;;;;;;;66.80;27.98;;;;;;;20.38;54.89;101311.34;16122353;19;130841;-43
2022/10/31 13:53:18;;;;;;;68.13;25.90;;;;;;;20.42;55.14;101287.53;16120430;19;131795;-43
2022/10/31 13:58:56;;;;;;;73.57;25.30;;;;;;;20.43;55.61;101258.66;16122052;19;129488;-41
2022/10/31 14:04:25;;;;;;;63.05;18.38;;;;;;;20.47;55.06;101259.81;16121656;19;129597;-42
2022/10/31 14:09:59;;;;;;;60.15;20.58;;;;;;;20.48;55.23;101250.38;16124215;19;129789;-44
2022/10/31 14:15:24;;;;;;;64.38;22.60;;;;;;;20.48;55.39;101230.09;16108476;19;130228;-42
2022/10/31 14:20:46;;;;;;;166.63;95.78;;;;;;;20.49;56.34;101218.72;16123031;19;129098;-42
2022/10/31 14:26:16;;;;;;;190.60;119.05;;;;;;;20.56;57.24;101211.06;16123746;19;129417;-43
2022/10/31 14:31:44;;;;;;;531.83;347.13;;;;;;;20.62;57.01;101202.81;16121876;19;130623;-42
2022/10/31 14:37:18;;;;;;;312.27;179.70;;;;;;;20.67;57.40;101197.34;16124092;19;129516;-42
2022/10/31 14:43:04;;;;;;;253.18;138.60;;;;;;;20.67;57.16;101197.34;16121711;19;131212;-41
2022/10/31 14:48:59;;;;;;;214.10;116.65;;;;;;;20.66;56.96;101179.81;16123026;19;129497;-41
2022/10/31 14:54:34;;;;;;;178.80;96.95;;;;;;;20.68;57.24;101177.63;16134914;19;129159;-45
2022/10/31 15:00:01;;;;;;;147.68;81.57;;;;;;;20.68;57.11;101176.75;16137200;19;129582;-42
2022/10/31 15:05:27;;;;;;;126.70;74.25;;;;;;;20.70;57.18;101175.44;16139558;19;130529;-46
2022/10/31 15:10:49;;;;;;;131.27;64.83;;;;;;;20.63;57.73;101179.47;16137617;19;130572;-36
2022/10/31 15:16:14;;;;;;;121.55;62.08;;;;;;;20.53;58.01;101157.91;16135382;19;129496;-35
2022/10/31 15:21:39;;;;;;;108.90;52.83;;;;;;;20.47;57.83;101154.22;16133754;19;129338;-35
2022/10/31 15:27:02;;;;;;;103.00;52.00;;;;;;;20.43;58.41;101148.31;16137484;19;129407;-36
2022/10/31 15:32:28;;;;;;;99.30;52.07;;;;;;;20.41;58.76;101138.56;16135663;19;129921;-36
2022/10/31 15:37:50;;;;;;;73.97;37.30;;;;;;;20.42;58.13;101140.25;16135259;19;129460;-36
2022/10/31 15:43:16;;;;;;;84.25;41.38;;;;;;;20.40;58.69;101126.59;16133115;19;129571;-36
2022/10/31 15:48:40;;;;;;;78.78;39.60;;;;;;;20.40;58.46;101114.66;16129107;19;130371;-36
2022/10/31 15:54:02;;;;;;;80.38;35.85;;;;;;;20.37;58.50;101107.66;16130112;19;130019;-36
2022/10/31 15:59:27;;;;;;;89.07;37.47;;;;;;;20.37;57.97;101113.19;16132900;19;129383;-35
2022/10/31 16:05:00;;;;;;;78.82;28.10;;;;;;;20.33;57.99;101111.19;16129076;19;130142;-35
2022/10/31 16:10:25;;;;;;;69.20;27.98;;;;;;;20.28;58.43;101106.41;16131450;19;129754;-35
2022/10/31 16:15:54;;;;;;;81.45;26.48;;;;;;;20.26;58.39;101097.47;16130301;19;129494;-36
2022/10/31 16:21:38;;;;;;;61.17;25.13;;;;;;;20.24;58.57;101094.97;16122664;19;129904;-35
2022/10/31 16:27:15;;;;;;;66.97;24.27;;;;;;;20.23;58.58;101087.72;16129550;19;129691;-35
2022/10/31 16:32:52;;;;;;;44.80;19.83;;;;;;;20.27;58.37;101088.91;16128435;19;131291;-35
2022/10/31 16:38:14;;;;;;;47.28;17.55;;;;;;;20.24;58.06;101089.41;16124538;19;129284;-35
2022/10/31 16:43:35;;;;;;;42.83;15.63;;;;;;;20.19;57.48;101067.09;16126449;19;130072;-36
2022/10/31 16:48:57;;;;;;;47.30;15.02;;;;;;;20.16;57.42;101059.28;16127097;19;129869;-35
2022/10/31 16:54:19;;;;;;;49.05;15.10;;;;;;;20.12;56.57;101052.53;16124945;19;129279;-35
2022/10/31 16:59:42;;;;;;;36.38;15.30;;;;;;;20.09;56.60;101056.66;16127263;19;129497;-35
2022/10/31 17:05:04;;;;;;;59.92;21.55;;;;;;;20.11;56.74;101059.19;16128247;19;129060;-35
2022/10/31 17:10:26;;;;;;;66.97;22.60;;;;;;;20.12;56.88;101046.97;16128256;19;130046;-35
2022/10/31 17:15:51;;;;;;;49.97;20.67;;;;;;;20.11;57.09;101056.41;16123958;19;129754;-35
2022/10/31 17:21:18;;;;;;;46.47;19.27;;;;;;;20.09;57.13;101041.94;16126160;19;129556;-35
2022/10/31 17:26:40;;;;;;;40.95;16.48;;;;;;;20.07;56.96;101038.56;16125864;19;130279;-35
2022/10/31 17:32:03;;;;;;;38.22;15.50;;;;;;;20.06;57.10;101042.47;16127024;19;131375;-35
2022/10/31 17:37:24;;;;;;;33.13;13.95;;;;;;;20.04;56.70;101039.91;16124752;19;129737;-35
2022/10/31 17:42:51;;;;;;;33.20;13.40;;;;;;;20.03;56.59;101027.13;16121911;19;129546;-35
2022/10/31 17:48:13;;;;;;;33.08;12.45;;;;;;;19.99;56.40;101037.91;16118394;19;130600;-35
2022/10/31 17:53:35;;;;;;;27.40;11.25;;;;;;;19.98;56.43;101040.91;16122620;19;129541;-35
2022/10/31 17:58:57;;;;;;;27.95;10.68;;;;;;;19.94;56.74;101040.53;16123150;19;129665;-35
2022/10/31 18:04:19;;;;;;;22.58;9.43;;;;;;;19.92;56.52;101037.22;16122804;19;129902;-35
2022/10/31 18:09:40;;;;;;;22.27;9.35;;;;;;;19.89;56.63;101032.16;16129247;19;129448;-35
2022/10/31 18:15:03;;;;;;;26.42;9.18;;;;;;;19.88;56.21;101026.88;16121089;19;132556;-35
2022/10/31 18:20:26;;;;;;;33.67;9.48;;;;;;;19.87;56.41;101022.41;16120294;19;129807;-35
2022/10/31 18:25:47;;;;;;;40.58;8.82;;;;;;;19.88;55.99;101026.88;16120367;19;129316;-35
2022/10/31 18:31:09;;;;;;;34.05;7.78;;;;;;;19.92;56.03;101020.56;16119747;19;129706;-35
2022/10/31 18:36:31;;;;;;;40.28;8.88;;;;;;;19.95;56.33;101019.19;16119394;19;130355;-36
2022/10/31 18:41:53;;;;;;;31.83;7.72;;;;;;;19.96;56.39;101016.16;16121563;19;129898;-36
2022/10/31 18:47:16;;;;;;;31.77;7.45;;;;;;;19.99;56.24;101003.72;16118861;19;130006;-35
2022/10/31 18:52:38;;;;;;;31.55;7.25;;;;;;;20.01;56.14;100995.16;16120962;19;129940;-35
2022/10/31 18:57:59;;;;;;;43.90;7.13;;;;;;;20.04;56.27;100991.88;16115514;19;129936;-35
2022/10/31 19:03:24;;;;;;;27.60;6.40;;;;;;;20.05;55.90;100996.34;16117888;19;129631;-35
2022/10/31 19:08:46;;;;;;;40.50;6.18;;;;;;;20.05;56.11;100991.59;16120523;19;129816;-35
2022/10/31 19:14:11;;;;;;;26.67;6.20;;;;;;;20.06;56.42;100992.47;16118350;19;129780;-35
2022/10/31 19:19:33;;;;;;;24.03;6.03;;;;;;;20.07;55.95;100977.47;16118284;19;130434;-35
2022/10/31 19:24:55;;;;;;;30.05;4.93;;;;;;;20.06;56.13;100984.13;16117309;19;129439;-35
2022/10/31 19:30:16;;;;;;;17.85;3.90;;;;;;;20.06;55.81;100973.84;16114955;19;129998;-36
2022/10/31 19:35:38;;;;;;;32.17;5.10;;;;;;;20.07;56.02;100963.56;16117398;19;129981;-35
2022/10/31 19:41:24;;;;;;;128.68;12.65;;;;;;;20.07;55.66;100949.69;16128230;19;129369;-35
2022/10/31 19:46:47;;;;;;;31.92;5.47;;;;;;;20.05;55.83;100941.63;16134927;19;129608;-36
2022/10/31 19:52:14;;;;;;;23.80;4.47;;;;;;;20.05;55.99;100941.63;16130856;19;129552;-35
2022/10/31 19:57:36;;;;;;;16.95;3.72;;;;;;;20.05;55.63;100929.69;16131970;19;129362;-35
2022/10/31 20:03:18;;;;;;;25.02;4.25;;;;;;;20.05;55.47;100924.13;16127669;19;129411;-35
2022/10/31 20:08:43;;;;;;;25.40;4.13;;;;;;;20.04;55.75;100928.00;16130227;19;130500;-35
2022/10/31 20:14:05;;;;;;;26.60;3.90;;;;;;;20.04;55.71;100914.13;16131607;19;130308;-35
2022/10/31 20:19:27;;;;;;;20.00;3.85;;;;;;;20.03;55.51;100898.56;16130462;19;131398;-36
2022/10/31 20:24:49;;;;;;;19.25;3.20;;;;;;;20.02;55.35;100906.03;16129179;19;130420;-36
2022/10/31 20:30:11;;;;;;;14.63;3.17;;;;;;;20.03;55.78;100898.56;16129814;19;130556;-35
2022/10/31 20:35:37;;;;;;;12.52;2.95;;;;;;;20.02;55.59;100897.69;16128193;19;129928;-36
2022/10/31 20:41:05;;;;;;;17.85;3.08;;;;;;;20.02;55.29;100891.31;16127614;19;129624;-36
2022/10/31 20:46:26;;;;;;;12.15;3.00;;;;;;;20.01;55.25;100884.06;16128672;19;129557;-35
2022/10/31 20:51:48;;;;;;;17.15;3.45;;;;;;;20.00;55.37;100874.88;16129763;19;130394;-35
2022/10/31 20:57:10;;;;;;;10.00;2.38;;;;;;;20.01;55.42;100867.41;16127402;19;131464;-35
2022/10/31 21:02:32;;;;;;;30.77;3.33;;;;;;;19.99;55.35;100871.28;16123790;19;130292;-36
2022/10/31 21:07:53;;;;;;;25.30;3.47;;;;;;;19.97;55.14;100876.22;16126887;19;129984;-36
2022/10/31 21:13:16;;;;;;;17.98;2.90;;;;;;;19.97;55.45;100883.72;16125763;19;129572;-35
2022/10/31 21:18:40;;;;;;;18.75;3.15;;;;;;;19.97;55.04;100880.94;16125238;19;129854;-35
2022/10/31 21:24:07;;;;;;;14.82;2.55;;;;;;;19.97;55.39;100887.31;16126266;19;129439;-35
2022/10/31 21:29:29;;;;;;;18.48;2.67;;;;;;;19.97;55.30;100883.72;16126040;19;130301;-35
2022/10/31 21:34:51;;;;;;;23.02;3.47;;;;;;;19.98;55.31;100880.69;16122389;19;129194;-35
2022/10/31 21:40:13;;;;;;;19.52;2.55;;;;;;;19.95;55.06;100875.63;16122202;19;129505;-35
2022/10/31 21:45:35;;;;;;;10.70;2.75;;;;;;;19.91;55.07;100870.84;16121024;19;129848;-35
2022/10/31 21:51:02;;;;;;;19.15;3.13;;;;;;;19.90;54.91;100861.69;16119556;19;129762;-34
2022/10/31 21:56:24;;;;;;;10.30;2.58;;;;;;;19.89;54.82;100857.25;16120787;19;129778;-35
2022/10/31 22:01:45;;;;;;;10.48;2.92;;;;;;;19.90;54.79;100839.50;16125894;19;130617;-35
2022/10/31 22:07:07;;;;;;;8.45;2.60;;;;;;;19.92;54.67;100826.19;16124891;19;129700;-34
2022/10/31 22:12:29;;;;;;;11.00;2.33;;;;;;;19.93;54.63;100815.91;16124064;19;131278;-34
2022/10/31 22:17:51;;;;;;;8.95;2.40;;;;;;;19.95;54.69;100814.53;16120414;19;129351;-35
2022/10/31 22:23:12;;;;;;;8.15;2.10;;;;;;;19.95;54.30;100809.00;16121820;19;130462;-35
2022/10/31 22:28:34;;;;;;;8.35;2.28;;;;;;;19.96;54.47;100810.69;16118529;19;130270;-34
2022/10/31 22:33:57;;;;;;;8.23;2.22;;;;;;;19.99;54.40;100814.91;16121486;19;129442;-35
2022/10/31 22:39:19;;;;;;;6.13;2.35;;;;;;;19.98;54.49;100807.66;16120890;19;130187;-35
2022/10/31 22:44:41;;;;;;;7.05;2.38;;;;;;;19.99;54.15;100799.09;16120792;19;129917;-34
2022/10/31 22:50:03;;;;;;;9.13;2.33;;;;;;;20.01;54.25;100795.22;16117629;19;129866;-35
2022/10/31 22:55:25;;;;;;;4.40;2.00;;;;;;;20.00;54.18;100783.25;16118141;19;129838;-35
2022/10/31 23:00:46;;;;;;;6.55;1.90;;;;;;;20.02;53.71;100769.97;16122609;19;129609;-35
2022/10/31 23:06:14;;;;;;;6.00;2.08;;;;;;;20.02;53.88;100769.13;16119887;19;130273;-35
2022/10/31 23:11:38;;;;;;;10.15;1.80;;;;;;;19.98;53.99;100766.84;16118426;19;129774;-35
2022/10/31 23:16:59;;;;;;;5.70;1.98;;;;;;;19.96;53.60;100763.47;16134708;19;129519;-36
2022/10/31 23:22:21;;;;;;;8.88;1.80;;;;;;;19.94;53.71;100754.56;16136102;19;129759;-35
2022/10/31 23:27:43;;;;;;;6.30;1.92;;;;;;;19.92;53.42;100751.22;16136141;19;130107;-35
2022/10/31 23:33:04;;;;;;;4.65;1.63;;;;;;;19.89;53.63;100748.97;16139903;19;129733;-35
2022/10/31 23:38:26;;;;;;;6.35;1.80;;;;;;;19.89;53.33;100754.50;16134819;19;129420;-35
2022/10/31 23:43:48;;;;;;;2.75;1.50;;;;;;;19.86;53.20;100746.69;16131796;19;129449;-35
2022/10/31 23:49:10;;;;;;;5.22;1.83;;;;;;;19.85;53.65;100756.13;16131794;19;129888;-35
2022/10/31 23:54:32;;;;;;;5.35;1.95;;;;;;;19.82;53.21;100751.06;16132862;19;130626;-35
2022/10/31 23:59:54;;;;;;;6.13;1.95;;;;;;;19.81;53.24;100741.09;16132716;19;130310;-35
